Metar Aviation Weather Data 0S9 Jefferson County International

37°F Temp
34°F Dewpoint
87% Humidity
Temperature
MPH
0 KM/H
KTS
Calm
Due North

Wind Speed
Partly Cloudy
Conditions
Pressure 1010.82 (hPa) - 29.85 (in)
Visibility 10.0 (mi) - 16.1 (km)

Current Conditions
0S9
Jefferson County International
Metar :K0S9 201435Z AUTO 00000KT 10SM FEW022 SCT028 OVC042 03/01 A2985 RMK AO2
Wed 20th February 07:35 am

Jefferson County International
  Metar Aviation API Data Provided by https://www.checkwx.com/ PHP scripts by weather34.com ©2019